Piarco FIR Weather

TAPA 131500Z 09011KT 060V150 9999 FEW022 31/23 Q1017 NOSIG

TBPB 131600Z 09018KT 9999 FEW020 31/24 Q1015 NOSIG

TDPD 131500Z 11012KT 9999 SCT019 30/25 Q1017

TFFF 131600Z AUTO 10017KT 9999 FEW052 31/24 Q1016

TFFR 131600Z AUTO 11014KT 9999 BKN033 BKN041 BKN052 30/23 Q1016

TGPY 131600Z 08017KT 9999 FEW018 31/24 Q1015 NOSIG

TKPK 131600Z 09015KT 9999 FEW022 31/25 Q1017

TKPN 131500Z 09014KT 9999 FEW020 31/25 Q1017

TLPC 131500Z 10012G23KT 9999 BKN024 30/24 Q1016 NOSIG

TLPL 131500Z 09020KT 9999 FEW028 30/25 Q1016 NOSIG

TTCP 131500Z 11011KT 9999 FEW020 31/24 Q1015 NOSIG

TTPP 131500Z 09011KT 9999 FEW026 31/23 Q1015 NOSIG

TVSV 132043Z 12005G18KT 4000 SHRA BKN014 27/23 Q1010